createdAt,value
2018-11-28T00:01:24.651Z,19.47
2018-11-28T00:03:51.849Z,20.32
2018-11-28T00:06:19.058Z,19.73
2018-11-28T00:08:46.381Z,18.75
2018-11-28T00:11:14.056Z,19.30
2018-11-28T00:13:41.251Z,18.60
2018-11-28T00:16:08.551Z,17.82
2018-11-28T00:18:35.830Z,19.50
2018-11-28T00:21:03.570Z,19.02
2018-11-28T00:23:30.745Z,18.32
2018-11-28T00:25:58.955Z,20.67
2018-11-28T00:28:25.195Z,19.05
2018-11-28T00:30:52.661Z,20.43
2018-11-28T00:33:19.858Z,20.97
2018-11-28T00:35:47.054Z,20.95
2018-11-28T00:38:14.310Z,20.25
2018-11-28T00:40:41.535Z,19.05
2018-11-28T00:43:08.738Z,19.37
2018-11-28T00:45:35.929Z,19.45
2018-11-28T00:48:03.152Z,20.80
2018-11-28T00:50:30.343Z,20.68
2018-11-28T00:52:57.530Z,19.90
2018-11-28T00:55:24.794Z,19.60
2018-11-28T00:57:51.993Z,19.40
2018-11-28T01:00:21.821Z,18.65
2018-11-28T01:02:49.298Z,21.15
2018-11-28T01:05:16.545Z,20.90
2018-11-28T01:07:44.342Z,21.02
2018-11-28T01:10:14.278Z,21.07
2018-11-28T01:12:49.077Z,21.33
2018-11-28T01:15:16.993Z,20.88
2018-11-28T01:17:44.346Z,21.70
2018-11-28T01:20:14.570Z,21.73
2018-11-28T01:22:41.775Z,23.07
2018-11-28T01:25:10.993Z,21.30
2018-11-28T01:27:38.156Z,20.55
2018-11-28T01:30:11.149Z,20.48
2018-11-28T01:32:38.362Z,21.20
2018-11-28T01:35:07.329Z,19.23
2018-11-28T01:37:34.518Z,20.50
2018-11-28T01:40:01.886Z,19.37
2018-11-28T01:42:29.078Z,20.70
2018-11-28T01:44:56.309Z,20.53
2018-11-28T01:47:23.695Z,20.43
2018-11-28T01:49:51.550Z,21.15
2018-11-28T01:52:18.744Z,20.32
2018-11-28T01:54:46.087Z,20.95
2018-11-28T01:57:13.998Z,21.50
2018-11-28T01:59:41.312Z,21.23
2018-11-28T02:02:09.841Z,20.95
2018-11-28T02:04:37.043Z,21.30
2018-11-28T02:07:05.266Z,19.82
2018-11-28T02:09:32.790Z,19.17
2018-11-28T02:12:00.026Z,19.70
2018-11-28T02:14:27.218Z,19.87
2018-11-28T02:16:54.621Z,19.10
2018-11-28T02:19:21.811Z,18.52
2018-11-28T02:21:49.001Z,19.67
2018-11-28T02:24:16.214Z,19.50
2018-11-28T02:26:43.394Z,20.00
2018-11-28T02:29:10.605Z,19.92
2018-11-28T02:31:37.834Z,20.02
2018-11-28T02:34:05.036Z,19.92
2018-11-28T02:36:32.340Z,20.32
2018-11-28T02:38:59.687Z,19.90
2018-11-28T02:41:26.868Z,20.80
2018-11-28T02:43:54.071Z,19.35
2018-11-28T02:46:36.202Z,19.92
2018-11-28T02:49:03.428Z,19.70
2018-11-28T02:51:30.620Z,20.77
2018-11-28T02:53:57.814Z,19.92
2018-11-28T02:56:25.629Z,18.67
2018-11-28T02:58:52.816Z,19.77
2018-11-28T03:01:19.995Z,19.25
2018-11-28T03:03:47.196Z,18.10
2018-11-28T03:06:14.423Z,19.00
2018-11-28T03:08:41.837Z,20.27
2018-11-28T03:11:09.111Z,19.73
2018-11-28T03:13:36.462Z,19.45
2018-11-28T03:16:09.163Z,20.02
2018-11-28T03:18:36.371Z,18.67
2018-11-28T03:21:03.613Z,20.17
2018-11-28T03:23:30.982Z,21.62
2018-11-28T03:25:58.262Z,22.00
2018-11-28T03:28:25.470Z,20.52
2018-11-28T03:30:52.671Z,18.52
2018-11-28T03:35:53.857Z,19.77
2018-11-28T03:38:21.057Z,18.77
2018-11-28T03:40:48.304Z,20.12
2018-11-28T03:43:15.499Z,19.92
2018-11-28T03:45:42.714Z,19.20
2018-11-28T03:48:09.898Z,18.87
2018-11-28T03:50:37.106Z,20.00
2018-11-28T03:53:04.625Z,20.20
2018-11-28T03:55:31.801Z,19.95
2018-11-28T03:57:59.024Z,20.32
2018-11-28T04:00:26.271Z,19.75
2018-11-28T04:02:53.450Z,20.35
2018-11-28T04:05:20.664Z,20.30
2018-11-28T04:07:48.032Z,19.12
2018-11-28T04:10:15.544Z,20.23
2018-11-28T04:12:43.324Z,19.40
2018-11-28T04:15:18.261Z,19.92
2018-11-28T04:17:45.543Z,19.75
2018-11-28T04:20:14.817Z,20.35
2018-11-28T04:22:42.062Z,21.50
2018-11-28T04:25:10.219Z,21.60
2018-11-28T04:27:37.417Z,19.37
2018-11-28T04:30:22.768Z,20.62
2018-11-28T04:32:50.911Z,21.52
2018-11-28T04:35:18.129Z,21.48
2018-11-28T04:37:45.652Z,21.52
2018-11-28T04:40:14.871Z,20.65
2018-11-28T04:42:42.378Z,20.85
2018-11-28T04:45:12.741Z,22.00
2018-11-28T04:47:39.919Z,20.48
2018-11-28T04:50:08.449Z,20.95
2018-11-28T04:52:35.642Z,22.48
2018-11-28T04:55:04.397Z,20.55
2018-11-28T04:57:31.584Z,21.70
2018-11-28T05:00:07.707Z,19.40
2018-11-28T05:02:34.914Z,20.52
2018-11-28T05:05:02.232Z,19.17
2018-11-28T05:07:29.890Z,20.45
2018-11-28T05:09:57.535Z,19.50
2018-11-28T05:12:24.818Z,19.37
2018-11-28T05:14:52.031Z,18.50
2018-11-28T05:17:22.366Z,18.45
2018-11-28T05:19:49.588Z,19.57
2018-11-28T05:22:16.786Z,19.27
2018-11-28T05:24:43.978Z,19.12
2018-11-28T05:27:11.223Z,18.42
2018-11-28T05:29:38.425Z,19.00
2018-11-28T05:32:06.720Z,19.30
2018-11-28T05:34:34.118Z,19.12
2018-11-28T05:37:01.333Z,17.67
2018-11-28T05:39:28.530Z,19.77
2018-11-28T05:41:55.721Z,19.20
2018-11-28T05:44:22.900Z,18.37
2018-11-28T05:46:50.158Z,19.40
2018-11-28T05:49:17.333Z,21.05
2018-11-28T05:51:44.519Z,19.10
2018-11-28T05:54:11.702Z,20.20
2018-11-28T05:56:38.889Z,17.52
2018-11-28T05:59:06.122Z,19.20
2018-11-28T06:01:33.318Z,20.23
2018-11-28T06:04:00.519Z,20.17
2018-11-28T06:06:27.750Z,20.92
2018-11-28T06:08:54.937Z,20.57
2018-11-28T06:11:22.213Z,19.62
2018-11-28T06:13:49.398Z,20.50
2018-11-28T06:16:16.598Z,20.02
2018-11-28T06:18:43.777Z,21.12
2018-11-28T06:21:10.967Z,22.67
2018-11-28T06:23:38.157Z,21.33
2018-11-28T06:26:05.642Z,20.30
2018-11-28T06:28:32.838Z,19.77
2018-11-28T06:31:00.038Z,19.60
2018-11-28T06:33:27.231Z,18.57
2018-11-28T06:35:54.403Z,18.32
2018-11-28T06:38:21.606Z,17.27
2018-11-28T06:40:48.793Z,19.40
2018-11-28T06:43:16.031Z,18.73
2018-11-28T06:45:43.234Z,18.65
2018-11-28T06:48:10.444Z,19.55
2018-11-28T06:50:37.646Z,19.80
2018-11-28T06:53:05.125Z,19.07
2018-11-28T06:55:32.778Z,17.95
2018-11-28T06:57:59.999Z,19.57
2018-11-28T07:00:27.190Z,18.42
2018-11-28T07:02:54.483Z,19.15
2018-11-28T07:05:22.182Z,18.90
2018-11-28T07:07:49.534Z,18.45
2018-11-28T07:10:17.597Z,19.23
2018-11-28T07:12:44.827Z,21.87
2018-11-28T07:15:13.039Z,18.95
2018-11-28T07:17:40.902Z,20.08
2018-11-28T07:20:09.312Z,20.43
2018-11-28T07:22:36.786Z,19.42
2018-11-28T07:25:05.996Z,19.25
2018-11-28T07:27:33.203Z,22.50
2018-11-28T07:30:00.597Z,21.00
2018-11-28T07:32:27.829Z,20.10
2018-11-28T07:34:55.022Z,19.95
2018-11-28T07:37:22.211Z,20.32
2018-11-28T07:39:49.397Z,19.10
2018-11-28T07:42:16.684Z,19.40
2018-11-28T07:44:43.947Z,21.33
2018-11-28T07:47:11.302Z,21.90
2018-11-28T07:49:38.639Z,20.30
2018-11-28T07:52:05.936Z,21.17
2018-11-28T07:54:33.228Z,20.37
2018-11-28T07:57:00.470Z,22.15
2018-11-28T07:59:27.735Z,21.10
2018-11-28T08:01:54.983Z,19.57
2018-11-28T08:04:22.630Z,22.50
2018-11-28T08:06:49.707Z,21.37
2018-11-28T08:09:16.969Z,21.17
2018-11-28T08:11:44.461Z,22.05
2018-11-28T08:14:11.757Z,22.05
2018-11-28T08:16:39.063Z,21.60
2018-11-28T08:19:06.310Z,22.77
2018-11-28T08:21:33.505Z,23.38
2018-11-28T08:24:00.793Z,21.75
2018-11-28T08:26:28.131Z,22.17
2018-11-28T08:28:55.342Z,22.10
2018-11-28T08:31:22.650Z,22.73
2018-11-28T08:33:50.154Z,22.48
2018-11-28T08:36:17.343Z,21.23
2018-11-28T08:38:44.539Z,21.00
2018-11-28T08:41:11.745Z,22.65
2018-11-28T08:43:39.011Z,21.85
2018-11-28T08:46:06.321Z,20.62
2018-11-28T08:48:33.490Z,21.55
2018-11-28T08:51:00.785Z,20.45
2018-11-28T08:53:28.046Z,21.52
2018-11-28T08:55:55.278Z,20.43
2018-11-28T08:58:22.510Z,21.15
2018-11-28T09:00:50.350Z,21.87
2018-11-28T09:03:17.559Z,22.05
2018-11-28T09:05:44.794Z,22.65
2018-11-28T09:08:12.035Z,21.93
2018-11-28T09:10:39.295Z,21.48
2018-11-28T09:13:06.556Z,20.55
2018-11-28T09:15:33.754Z,20.27
2018-11-28T09:18:01.023Z,21.40
2018-11-28T09:20:28.208Z,19.82
2018-11-28T09:22:55.417Z,20.80
2018-11-28T09:25:22.783Z,19.87
2018-11-28T09:27:54.199Z,20.63
2018-11-28T09:30:21.434Z,19.97
2018-11-28T09:32:49.404Z,20.03
2018-11-28T09:35:16.987Z,20.13
2018-11-28T09:37:45.932Z,18.85
2018-11-28T09:40:15.515Z,20.93
2018-11-28T09:42:42.730Z,20.33
2018-11-28T09:45:13.021Z,21.17
2018-11-28T09:47:40.314Z,21.13
2018-11-28T09:50:13.520Z,20.87
2018-11-28T09:52:40.762Z,19.95
2018-11-28T09:55:09.682Z,20.37
2018-11-28T09:57:36.922Z,20.00
2018-11-28T10:00:06.887Z,20.88
2018-11-28T10:02:34.081Z,19.57
2018-11-28T10:05:02.863Z,20.52
2018-11-28T10:07:28.562Z,20.03
2018-11-28T10:09:55.747Z,20.77
2018-11-28T10:12:23.042Z,20.47
2018-11-28T10:14:50.230Z,21.10
2018-11-28T10:17:17.514Z,20.83
2018-11-28T10:19:44.719Z,20.67
2018-11-28T10:22:11.911Z,48.40
2018-11-28T10:24:39.127Z,27.73
2018-11-28T10:27:06.534Z,39.30
2018-11-28T10:29:33.718Z,23.40
2018-11-28T10:32:00.906Z,21.73
2018-11-28T10:34:29.622Z,21.77
2018-11-28T10:36:55.405Z,20.97
2018-11-28T10:39:22.608Z,22.63
2018-11-28T10:41:49.808Z,23.10
2018-11-28T10:44:17.038Z,21.30
2018-11-28T10:46:44.238Z,21.67
2018-11-28T10:49:11.447Z,21.30
2018-11-28T10:51:38.617Z,20.93
2018-11-28T10:54:06.405Z,21.70
2018-11-28T10:56:33.590Z,20.33
2018-11-28T10:59:00.790Z,19.30
2018-11-28T11:01:28.168Z,21.60
2018-11-28T11:03:59.977Z,20.70
2018-11-28T11:06:33.052Z,20.27
2018-11-28T11:09:06.057Z,21.57
2018-11-28T11:11:39.134Z,20.63
2018-11-28T11:15:11.106Z,20.10
2018-11-28T11:17:45.122Z,21.33
2018-11-28T11:20:12.438Z,21.10
2018-11-28T11:22:39.630Z,21.10
2018-11-28T11:25:06.874Z,20.73
2018-11-28T11:27:34.077Z,20.47
2018-11-28T11:30:01.254Z,21.27
2018-11-28T11:32:28.466Z,19.80
2018-11-28T11:34:55.673Z,20.77
2018-11-28T11:37:22.932Z,19.97
2018-11-28T11:39:50.212Z,19.70
2018-11-28T11:42:17.420Z,18.93
2018-11-28T11:44:44.690Z,19.80
2018-11-28T11:47:11.910Z,18.80
2018-11-28T11:49:39.149Z,18.80
2018-11-28T11:52:06.458Z,19.30
2018-11-28T11:54:33.652Z,19.13
2018-11-28T11:57:00.828Z,19.57
2018-11-28T11:59:28.023Z,20.47
2018-11-28T12:01:55.203Z,18.87
2018-11-28T12:04:22.458Z,19.93
2018-11-28T12:06:49.735Z,19.27
2018-11-28T12:09:16.942Z,18.90
2018-11-28T12:11:44.146Z,17.67
2018-11-28T12:14:11.364Z,16.63
2018-11-28T12:16:38.595Z,16.17
2018-11-28T12:19:06.035Z,16.77
2018-11-28T12:21:33.258Z,16.80
2018-11-28T12:24:00.472Z,16.13
2018-11-28T12:26:27.657Z,16.27
2018-11-28T12:28:54.854Z,16.87
2018-11-28T12:31:22.051Z,16.77
2018-11-28T12:33:49.271Z,17.53
2018-11-28T12:36:17.245Z,15.27
2018-11-28T12:38:44.531Z,16.43
2018-11-28T12:41:11.794Z,16.50
2018-11-28T12:43:39.054Z,15.47
2018-11-28T12:46:06.415Z,17.60
2018-11-28T12:48:33.644Z,16.43
2018-11-28T12:51:00.927Z,15.53
2018-11-28T12:53:28.131Z,17.17
2018-11-28T12:55:55.311Z,17.83
2018-11-28T12:58:22.507Z,17.00
2018-11-28T13:00:49.717Z,22.17
2018-11-28T13:03:17.780Z,16.17
2018-11-28T13:05:45.061Z,16.57
2018-11-28T13:08:12.291Z,15.97
2018-11-28T13:10:40.297Z,16.93
2018-11-28T13:13:08.683Z,15.53
2018-11-28T13:15:36.898Z,17.20
2018-11-28T13:18:06.261Z,17.13
2018-11-28T13:20:33.447Z,16.30
2018-11-28T13:23:00.716Z,15.83
2018-11-28T13:25:27.967Z,15.90
2018-11-28T13:27:55.527Z,16.00
2018-11-28T13:30:23.606Z,16.00
2018-11-28T13:32:51.441Z,17.27
2018-11-28T13:35:20.313Z,16.17
2018-11-28T13:37:48.858Z,15.17
2018-11-28T13:40:17.745Z,17.00
2018-11-28T13:45:30.382Z,16.93
2018-11-28T13:47:57.693Z,16.70
2018-11-28T13:50:24.942Z,16.60
2018-11-28T13:52:53.066Z,15.23
2018-11-28T13:56:58.150Z,16.33
2018-11-28T13:58:52.303Z,16.50
2018-11-28T14:01:19.484Z,15.47
2018-11-28T14:03:46.743Z,16.13
2018-11-28T14:06:13.932Z,15.83
2018-11-28T14:08:41.133Z,15.80
2018-11-28T14:11:08.355Z,15.10
2018-11-28T14:13:35.550Z,15.93
2018-11-28T14:16:03.045Z,16.33
2018-11-28T14:18:30.254Z,15.73
2018-11-28T14:20:57.514Z,16.07
2018-11-28T14:23:24.790Z,16.60
2018-11-28T14:25:52.266Z,16.40
2018-11-28T14:28:19.596Z,17.37
2018-11-28T14:30:47.452Z,16.27
2018-11-28T14:33:14.642Z,17.00
2018-11-28T14:35:41.943Z,17.53
2018-11-28T14:38:09.141Z,16.87
2018-11-28T14:40:36.342Z,17.47
2018-11-28T14:43:03.611Z,17.80
2018-11-28T14:45:31.506Z,18.43
2018-11-28T14:47:58.767Z,16.83
2018-11-28T14:50:26.762Z,18.23
2018-11-28T14:52:54.983Z,17.10
2018-11-28T14:55:30.346Z,16.43
2018-11-28T14:57:57.990Z,17.17
2018-11-28T15:00:26.364Z,17.90
2018-11-28T15:03:03.150Z,16.90
2018-11-28T15:05:36.867Z,17.50
2018-11-28T15:08:06.998Z,17.17
2018-11-28T15:10:39.334Z,16.77
2018-11-28T15:13:06.610Z,15.67
2018-11-28T15:15:33.797Z,17.40
2018-11-28T15:18:01.145Z,17.20
2018-11-28T15:20:28.333Z,16.63
2018-11-28T15:22:55.517Z,16.93
2018-11-28T15:25:22.794Z,16.83
2018-11-28T15:27:50.115Z,17.33
2018-11-28T15:30:17.349Z,16.80
2018-11-28T15:32:44.605Z,18.40
2018-11-28T15:35:11.817Z,16.80
2018-11-28T15:37:39.095Z,16.77
2018-11-28T15:40:07.057Z,16.73
2018-11-28T15:42:34.396Z,16.60
2018-11-28T15:45:01.616Z,17.50
2018-11-28T15:47:28.934Z,15.90
2018-11-28T15:49:56.266Z,16.57
2018-11-28T15:52:23.453Z,17.00
2018-11-28T15:54:50.748Z,18.07
2018-11-28T15:57:17.953Z,17.97
2018-11-28T15:59:45.151Z,16.73
2018-11-28T16:02:12.466Z,16.83
2018-11-28T16:04:39.718Z,17.30
2018-11-28T16:07:07.051Z,17.10
2018-11-28T16:09:40.015Z,15.80
2018-11-28T16:12:07.334Z,16.03
2018-11-28T16:14:34.723Z,15.87
2018-11-28T16:17:02.014Z,16.47
2018-11-28T16:19:29.240Z,16.53
2018-11-28T16:21:56.546Z,16.80
2018-11-28T16:24:23.741Z,15.13
2018-11-28T16:26:50.994Z,16.13
2018-11-28T16:29:18.230Z,15.57
2018-11-28T16:31:45.456Z,15.77
2018-11-28T16:34:12.690Z,16.17
2018-11-28T16:36:39.902Z,15.07
2018-11-28T16:39:07.565Z,15.63
2018-11-28T16:41:34.961Z,16.00
2018-11-28T16:44:02.238Z,16.53
2018-11-28T16:46:29.575Z,16.77
2018-11-28T16:48:56.802Z,16.73
2018-11-28T16:51:24.070Z,16.77
2018-11-28T16:53:51.285Z,17.27
2018-11-28T16:56:18.554Z,18.17
2018-11-28T16:58:45.775Z,19.63
2018-11-28T17:01:13.090Z,29.53
2018-11-28T17:03:40.354Z,18.63
2018-11-28T17:06:07.693Z,17.13
2018-11-28T17:08:34.984Z,17.07
2018-11-28T17:11:02.212Z,15.73
2018-11-28T17:13:29.454Z,15.30
2018-11-28T17:15:56.673Z,14.70
2018-11-28T17:18:23.962Z,15.27
2018-11-28T17:20:51.174Z,16.47
2018-11-28T17:23:18.378Z,15.37
2018-11-28T17:25:45.607Z,15.53
2018-11-28T17:28:12.822Z,14.80
2018-11-28T17:30:40.136Z,15.87
2018-11-28T17:33:07.342Z,16.00
2018-11-28T17:35:34.608Z,15.43
2018-11-28T17:38:01.818Z,14.53
2018-11-28T17:40:29.034Z,14.83
2018-11-28T17:42:58.193Z,15.27
2018-11-28T17:45:25.926Z,15.00
2018-11-28T17:47:53.162Z,15.33
2018-11-28T17:50:23.306Z,15.23
2018-11-28T17:53:02.606Z,14.93
2018-11-28T17:55:33.842Z,15.27
2018-11-28T17:58:01.046Z,15.60
2018-11-28T18:00:28.347Z,14.83
2018-11-28T18:02:55.537Z,16.37
2018-11-28T18:05:22.743Z,15.33
2018-11-28T18:07:49.971Z,16.57
2018-11-28T18:10:18.526Z,15.87
2018-11-28T18:13:01.143Z,37.43
2018-11-28T18:15:28.481Z,17.77
2018-11-28T18:17:56.342Z,16.37
2018-11-28T18:20:23.658Z,15.43
2018-11-28T18:22:50.913Z,15.67
2018-11-28T18:25:18.194Z,15.67
2018-11-28T18:27:45.413Z,14.93
2018-11-28T18:30:12.804Z,14.37
2018-11-28T18:32:40.017Z,15.13
2018-11-28T18:35:08.647Z,14.67
2018-11-28T18:37:36.100Z,15.13
2018-11-28T18:40:05.714Z,14.37
2018-11-28T18:42:32.934Z,14.83
2018-11-28T18:45:00.165Z,15.83
2018-11-28T18:47:27.401Z,14.30
2018-11-28T18:49:54.607Z,15.37
2018-11-28T18:52:21.803Z,15.73
2018-11-28T18:54:49.158Z,15.37
2018-11-28T18:59:50.621Z,15.33
2018-11-28T19:02:17.908Z,15.30
2018-11-28T19:04:45.108Z,15.07
2018-11-28T19:07:12.472Z,15.33
2018-11-28T19:09:45.468Z,15.13
2018-11-28T19:12:12.746Z,13.67
2018-11-28T19:14:40.022Z,14.57
2018-11-28T19:17:07.263Z,14.10
2018-11-28T19:19:34.458Z,14.40
2018-11-28T19:22:01.766Z,14.57
2018-11-28T19:24:29.010Z,14.13
2018-11-28T19:26:56.391Z,14.00
2018-11-28T19:29:23.586Z,13.40
2018-11-28T19:31:51.160Z,14.40
2018-11-28T19:34:18.458Z,14.80
2018-11-28T19:36:45.703Z,14.03
2018-11-28T19:39:12.883Z,12.80
2018-11-28T19:41:40.098Z,14.60
2018-11-28T19:44:07.538Z,13.13
2018-11-28T19:46:34.897Z,14.40
2018-11-28T19:49:02.270Z,13.57
2018-11-28T19:51:29.537Z,13.23
2018-11-28T19:53:56.779Z,14.10
2018-11-28T19:56:24.004Z,14.17
2018-11-28T19:58:51.198Z,13.23
2018-11-28T20:01:18.417Z,14.10
2018-11-28T20:03:45.601Z,14.37
2018-11-28T20:06:12.818Z,14.77
2018-11-28T20:08:40.012Z,14.50
2018-11-28T20:11:07.326Z,13.93
2018-11-28T20:13:35.130Z,15.30
2018-11-28T20:16:02.609Z,14.47
2018-11-28T20:18:29.894Z,14.23
2018-11-28T20:20:57.160Z,14.23
2018-11-28T20:23:24.388Z,14.77
2018-11-28T20:25:51.806Z,13.90
2018-11-28T20:28:20.063Z,14.27
2018-11-28T20:30:47.354Z,15.93
2018-11-28T20:33:15.619Z,15.17
2018-11-28T20:35:44.070Z,14.17
2018-11-28T20:38:16.602Z,14.50
2018-11-28T20:40:43.854Z,14.77
2018-11-28T20:43:11.130Z,14.53
2018-11-28T20:45:38.397Z,15.60
2018-11-28T20:48:05.665Z,16.27
2018-11-28T20:50:33.861Z,13.97
2018-11-28T20:53:03.074Z,16.70
2018-11-28T20:55:30.478Z,15.30
2018-11-28T20:57:57.718Z,15.13
2018-11-28T21:00:25.138Z,14.43
2018-11-28T21:02:52.366Z,14.83
2018-11-28T21:05:19.584Z,14.80
2018-11-28T21:07:46.825Z,15.47
2018-11-28T21:10:20.826Z,15.90
2018-11-28T21:12:48.118Z,14.57
2018-11-28T21:15:15.338Z,15.87
2018-11-28T21:17:43.138Z,16.30
2018-11-28T21:20:12.474Z,16.77
2018-11-28T21:22:39.815Z,16.53
2018-11-28T21:25:08.898Z,16.87
2018-11-28T21:27:36.110Z,15.80
2018-11-28T21:30:06.858Z,16.33
2018-11-28T21:32:34.081Z,14.77
2018-11-28T21:35:01.347Z,14.80
2018-11-28T21:37:28.585Z,16.00
2018-11-28T21:39:56.237Z,15.20
2018-11-28T21:42:23.864Z,14.30
2018-11-28T21:44:51.327Z,14.83
2018-11-28T21:47:18.555Z,15.37
2018-11-28T21:49:45.880Z,16.60
2018-11-28T21:52:13.142Z,15.10
2018-11-28T21:54:40.517Z,17.40
2018-11-28T22:00:38.822Z,15.87
2018-11-28T22:03:06.634Z,17.37
2018-11-28T22:05:34.442Z,17.63
2018-11-28T22:08:04.724Z,16.47
2018-11-28T22:10:32.018Z,17.53
2018-11-28T22:12:59.218Z,16.97
2018-11-28T22:15:26.418Z,17.53
2018-11-28T22:18:00.939Z,17.53
2018-11-28T22:20:28.430Z,17.73
2018-11-28T22:22:55.621Z,17.43
2018-11-28T22:25:23.897Z,17.30
2018-11-28T22:27:51.209Z,16.10
2018-11-28T22:30:20.511Z,16.87
2018-11-28T22:32:47.703Z,17.07
2018-11-28T22:35:14.902Z,17.50
2018-11-28T22:37:42.115Z,16.83
2018-11-28T22:40:17.433Z,17.27
2018-11-28T22:42:44.658Z,16.33
2018-11-28T22:45:14.102Z,15.57
2018-11-28T22:47:42.030Z,16.17
2018-11-28T22:50:10.426Z,16.73
2018-11-28T22:52:38.062Z,17.43
2018-11-28T22:55:07.085Z,17.57
2018-11-28T22:57:34.734Z,18.27
2018-11-28T23:00:01.938Z,17.87
2018-11-28T23:02:52.302Z,17.27
2018-11-28T23:05:20.158Z,17.13
2018-11-28T23:07:47.465Z,16.73
2018-11-28T23:10:14.926Z,17.07
2018-11-28T23:12:42.167Z,16.93
2018-11-28T23:15:09.385Z,17.63
2018-11-28T23:17:36.710Z,16.70
2018-11-28T23:20:03.934Z,17.97
2018-11-28T23:22:31.130Z,18.13
2018-11-28T23:24:58.310Z,17.47
2018-11-28T23:27:25.508Z,16.93
2018-11-28T23:29:52.733Z,17.50
2018-11-28T23:32:20.029Z,18.57
2018-11-28T23:34:47.219Z,18.20
2018-11-28T23:37:14.422Z,19.63
2018-11-28T23:39:41.621Z,18.77
2018-11-28T23:42:08.909Z,18.43
2018-11-28T23:44:36.101Z,17.00
2018-11-28T23:47:03.378Z,16.90
2018-11-28T23:49:30.562Z,16.70
2018-11-28T23:51:57.802Z,16.23
2018-11-28T23:54:31.934Z,17.27
2018-11-28T23:56:59.150Z,17.23
2018-11-28T23:59:26.364Z,16.03
